createdAt,value
2022-11-04T00:00:59.959Z,99912.13
2022-11-04T00:03:26.317Z,99912.41
2022-11-04T00:05:52.728Z,99915.38
2022-11-04T00:08:19.131Z,99917.25
2022-11-04T00:10:45.634Z,99920.47
2022-11-04T00:13:11.910Z,99923.47
2022-11-04T00:15:38.196Z,99917.25
2022-11-04T00:18:04.605Z,99923.75
2022-11-04T00:20:30.980Z,99918.34
2022-11-04T00:22:57.295Z,99924.00
2022-11-04T00:25:23.659Z,99919.13
2022-11-04T00:27:50.007Z,99917.50
2022-11-04T00:30:16.339Z,99921.28
2022-11-04T00:32:42.603Z,99914.53
2022-11-04T00:35:08.931Z,99921.00
2022-11-04T00:37:35.218Z,99921.25
2022-11-04T00:40:01.468Z,99914.25
2022-11-04T00:42:27.878Z,99906.41
2022-11-04T00:44:54.142Z,99909.41
2022-11-04T00:47:20.445Z,99909.66
2022-11-04T00:49:46.706Z,99907.22
2022-11-04T00:52:13.073Z,99899.13
2022-11-04T00:54:39.332Z,99888.59
2022-11-04T00:57:05.576Z,99891.56
2022-11-04T00:59:32.095Z,99893.44
2022-11-04T01:01:58.505Z,99894.50
2022-11-04T01:04:25.113Z,99884.78
2022-11-04T01:06:51.414Z,99882.38
2022-11-04T01:09:18.136Z,99880.75
2022-11-04T01:11:44.373Z,99882.09
2022-11-04T01:14:10.847Z,99888.56
2022-11-04T01:16:37.158Z,99887.50
2022-11-04T01:19:03.602Z,99891.28
2022-11-04T01:21:29.994Z,99882.63
2022-11-04T01:23:56.407Z,99883.69
2022-11-04T01:26:22.726Z,99870.72
2022-11-04T01:28:49.050Z,99871.81
2022-11-04T01:31:15.384Z,99877.22
2022-11-04T01:33:41.804Z,99876.66
2022-11-04T01:36:08.260Z,99872.34
2022-11-04T01:38:34.556Z,99862.63
2022-11-04T01:41:00.856Z,99863.72
2022-11-04T01:43:27.236Z,99863.97
2022-11-04T01:45:53.634Z,99874.75
2022-11-04T01:48:19.970Z,99875.00
2022-11-04T01:50:46.377Z,99860.72
2022-11-04T01:53:12.814Z,99859.91
2022-11-04T01:55:39.074Z,99849.38
2022-11-04T01:58:05.398Z,99849.66
2022-11-04T02:00:31.643Z,99842.63
2022-11-04T02:02:58.488Z,99842.63
2022-11-04T02:05:25.018Z,99837.50
2022-11-04T02:07:51.478Z,99833.97
2022-11-04T02:10:17.855Z,99838.84
2022-11-04T02:12:44.547Z,99831.00
2022-11-04T02:15:11.120Z,99829.13
2022-11-04T02:17:37.564Z,99825.63
2022-11-04T02:20:04.044Z,99823.75
2022-11-04T02:22:30.438Z,99825.63
2022-11-04T02:24:56.717Z,99816.19
2022-11-04T02:27:23.027Z,99811.03
2022-11-04T02:29:49.313Z,99814.78
2022-11-04T02:32:15.755Z,99813.97
2022-11-04T02:34:42.040Z,99816.94
2022-11-04T02:37:08.547Z,99815.06
2022-11-04T02:39:34.910Z,99809.13
2022-11-04T02:42:01.244Z,99817.22
2022-11-04T02:44:27.691Z,99815.56
2022-11-04T02:46:56.991Z,99807.47
2022-11-04T02:49:23.376Z,99808.81
2022-11-04T02:51:49.643Z,99811.25
2022-11-04T02:54:15.935Z,99816.13
2022-11-04T02:56:42.219Z,99815.31
2022-11-04T02:59:08.572Z,99818.81
2022-11-04T03:01:34.933Z,99817.16
2022-11-04T03:04:01.334Z,99815.56
2022-11-04T03:06:27.807Z,99815.81
2022-11-04T03:08:54.321Z,99813.38
2022-11-04T03:11:20.690Z,99812.34
2022-11-04T03:13:47.062Z,99796.41
2022-11-04T03:16:13.540Z,99806.38
2022-11-04T03:18:40.025Z,99802.06
2022-11-04T03:21:06.551Z,99802.06
2022-11-04T03:23:32.956Z,99799.88
2022-11-04T03:25:59.280Z,99801.50
2022-11-04T03:28:25.697Z,99799.88
2022-11-04T03:30:52.066Z,99790.19
2022-11-04T03:33:18.362Z,99784.53
2022-11-04T03:35:44.620Z,99790.19
2022-11-04T03:38:11.052Z,99793.16
2022-11-04T03:40:37.440Z,99805.84
2022-11-04T03:43:03.720Z,99806.09
2022-11-04T03:45:29.988Z,99797.19
2022-11-04T03:47:56.372Z,99808.22
2022-11-04T03:50:22.664Z,99800.13
2022-11-04T03:52:48.997Z,99790.44
2022-11-04T03:55:15.332Z,99789.34
2022-11-04T03:57:41.679Z,99787.16
2022-11-04T04:00:07.978Z,99796.34
2022-11-04T04:02:34.394Z,99802.31
2022-11-04T04:05:00.764Z,99801.72
2022-11-04T04:07:27.535Z,99807.94
2022-11-04T04:09:53.835Z,99802.00
2022-11-04T04:12:20.490Z,99796.06
2022-11-04T04:14:46.758Z,99810.09
2022-11-04T04:17:13.076Z,99807.69
2022-11-04T04:19:39.337Z,99806.84
2022-11-04T04:22:05.854Z,99811.41
2022-11-04T04:24:32.148Z,99818.16
2022-11-04T04:26:58.533Z,99813.84
2022-11-04T04:29:24.987Z,99814.09
2022-11-04T04:31:51.260Z,99814.09
2022-11-04T04:34:17.664Z,99821.66
2022-11-04T04:36:43.996Z,99823.00
2022-11-04T04:39:10.384Z,99807.91
2022-11-04T04:41:36.648Z,99808.72
2022-11-04T04:44:02.986Z,99810.03
2022-11-04T04:46:29.259Z,99814.63
2022-11-04T04:48:55.616Z,99809.50
2022-11-04T04:51:21.958Z,99811.38
2022-11-04T04:53:48.230Z,99811.38
2022-11-04T04:56:14.599Z,99807.34
2022-11-04T04:58:41.118Z,99811.09
2022-11-04T05:01:07.496Z,99816.50
2022-11-04T05:03:33.885Z,99816.50
2022-11-04T05:06:00.208Z,99812.16
2022-11-04T05:08:26.891Z,99816.50
2022-11-04T05:10:53.215Z,99814.84
2022-11-04T05:13:19.636Z,99823.22
2022-11-04T05:15:45.869Z,99815.41
2022-11-04T05:18:12.340Z,99821.56
2022-11-04T05:20:38.704Z,99819.97
2022-11-04T05:23:05.044Z,99818.09
2022-11-04T05:25:31.317Z,99824.53
2022-11-04T05:27:57.768Z,99830.22
2022-11-04T05:30:24.171Z,99828.56
2022-11-04T05:32:50.588Z,99832.34
2022-11-04T05:35:16.955Z,99840.41
2022-11-04T05:37:43.303Z,99834.78
2022-11-04T05:40:09.587Z,99829.63
2022-11-04T05:42:35.902Z,99838.81
2022-11-04T05:45:02.507Z,99847.16
2022-11-04T05:47:28.852Z,99846.31
2022-11-04T05:49:55.192Z,99851.72
2022-11-04T05:52:21.790Z,99857.09
2022-11-04T05:54:48.269Z,99866.25
2022-11-04T05:57:14.514Z,99860.09
2022-11-04T05:59:40.854Z,99867.34
2022-11-04T06:02:07.331Z,99863.56
2022-11-04T06:04:33.949Z,99870.53
2022-11-04T06:07:00.231Z,99874.06
2022-11-04T06:09:26.799Z,99882.16
2022-11-04T06:11:53.362Z,99874.06
2022-11-04T06:14:19.703Z,99878.09
2022-11-04T06:16:46.086Z,99880.22
2022-11-04T06:19:15.894Z,99881.56
2022-11-04T06:21:42.572Z,99885.34
2022-11-04T06:24:08.945Z,99895.34
2022-11-04T06:26:35.229Z,99889.13
2022-11-04T06:29:01.571Z,99878.59
2022-11-04T06:31:27.938Z,99876.16
2022-11-04T06:33:54.383Z,99880.22
2022-11-04T06:36:20.698Z,99884.25
2022-11-04T06:38:47.091Z,99883.16
2022-11-04T06:41:13.465Z,99888.84
2022-11-04T06:43:39.908Z,99901.22
2022-11-04T06:46:06.232Z,99907.69
2022-11-04T06:48:32.545Z,99897.16
2022-11-04T06:50:59.027Z,99899.28
2022-11-04T06:53:25.422Z,99888.53
2022-11-04T06:55:51.688Z,99894.72
2022-11-04T06:58:18.024Z,99901.44
2022-11-04T07:00:44.363Z,99905.22
2022-11-04T07:03:11.125Z,99923.00
2022-11-04T07:05:37.612Z,99920.31
2022-11-04T07:08:03.885Z,99920.31
2022-11-04T07:10:30.160Z,99912.47
2022-11-04T07:12:56.488Z,99909.78
2022-11-04T07:15:27.275Z,99909.53
2022-11-04T07:17:53.939Z,99917.03
2022-11-04T07:20:20.426Z,99922.44
2022-11-04T07:22:46.920Z,99921.06
2022-11-04T07:25:13.349Z,99918.38
2022-11-04T07:27:39.937Z,99915.94
2022-11-04T07:30:06.227Z,99918.63
2022-11-04T07:32:32.662Z,99909.50
2022-11-04T07:34:59.086Z,99911.38
2022-11-04T07:37:25.685Z,99905.16
2022-11-04T07:39:51.964Z,99908.41
2022-11-04T07:42:18.393Z,99907.06
2022-11-04T07:44:44.791Z,99906.47
2022-11-04T07:47:11.138Z,99910.78
2022-11-04T07:49:37.483Z,99911.06
2022-11-04T07:52:04.067Z,99913.78
2022-11-04T07:54:30.443Z,99914.81
2022-11-04T07:56:56.700Z,99918.34
2022-11-04T07:59:23.006Z,99906.75
2022-11-04T08:01:49.571Z,99909.44
2022-11-04T08:04:15.859Z,99914.03
2022-11-04T08:06:42.135Z,99911.59
2022-11-04T08:09:08.532Z,99904.31
2022-11-04T08:11:34.805Z,99893.56
2022-11-04T08:14:01.154Z,99894.03
2022-11-04T08:16:33.008Z,99887.81
2022-11-04T08:19:00.552Z,99895.91
2022-11-04T08:21:26.864Z,99888.41
2022-11-04T08:23:53.316Z,99888.91
2022-11-04T08:26:19.616Z,99889.47
2022-11-04T08:28:46.102Z,99888.06
2022-11-04T08:31:12.443Z,99889.72
2022-11-04T08:33:38.773Z,99875.69
2022-11-04T08:36:05.127Z,99880.28
2022-11-04T08:38:31.807Z,99884.84
2022-11-04T08:40:59.905Z,99894.78
2022-11-04T08:43:26.722Z,99900.75
2022-11-04T08:45:53.081Z,99906.91
2022-11-04T08:48:19.518Z,99909.91
2022-11-04T08:50:45.903Z,99904.75
2022-11-04T08:55:41.491Z,99893.16
2022-11-04T08:58:08.018Z,99890.97
2022-11-04T09:03:13.117Z,99905.56
2022-11-04T09:05:39.461Z,99902.31
2022-11-04T09:08:06.100Z,99914.16
2022-11-04T09:10:32.925Z,99910.66
2022-11-04T09:12:59.524Z,99910.66
2022-11-04T09:15:25.995Z,99907.13
2022-11-04T09:17:52.273Z,99899.88
2022-11-04T09:20:18.626Z,99893.13
2022-11-04T09:22:46.078Z,99879.66
2022-11-04T09:25:12.506Z,99863.50
2022-11-04T09:27:38.908Z,99867.28
2022-11-04T09:30:05.374Z,99866.47
2022-11-04T09:32:31.811Z,99871.03
2022-11-04T09:34:58.144Z,99866.47
2022-11-04T09:37:24.595Z,99858.63
2022-11-04T09:39:53.822Z,99864.03
2022-11-04T09:42:20.379Z,99872.91
2022-11-04T09:45:19.391Z,99874.00
2022-11-04T09:47:35.091Z,99880.16
2022-11-04T09:50:01.542Z,99876.69
2022-11-04T09:52:28.002Z,99873.19
2022-11-04T09:54:54.304Z,99878.56
2022-11-04T09:57:20.598Z,99876.94
2022-11-04T09:59:46.910Z,99885.81
2022-11-04T10:02:17.725Z,99907.91
2022-11-04T10:04:47.213Z,99910.88
2022-11-04T10:07:13.561Z,99906.81
2022-11-04T10:09:39.922Z,99923.75
2022-11-04T10:12:06.200Z,99923.50
2022-11-04T10:14:35.425Z,99922.97
2022-11-04T10:17:02.122Z,99926.72
2022-11-04T10:19:28.461Z,99917.56
2022-11-04T10:21:54.804Z,99912.19
2022-11-04T10:24:21.386Z,99905.44
2022-11-04T10:26:47.668Z,99908.13
2022-11-04T10:29:13.983Z,99912.44
2022-11-04T10:31:40.452Z,99915.13
2022-11-04T10:34:07.340Z,99917.00
2022-11-04T10:36:33.884Z,99918.91
2022-11-04T10:39:00.343Z,99929.09
2022-11-04T10:41:26.711Z,99924.53
2022-11-04T10:43:53.265Z,99933.41
2022-11-04T10:46:19.540Z,99943.38
2022-11-04T10:48:45.879Z,99946.06
2022-11-04T10:51:12.174Z,99943.38
2022-11-04T10:53:38.454Z,99947.16
2022-11-04T10:56:04.796Z,99951.72
2022-11-04T10:58:31.072Z,99958.97
2022-11-04T11:00:57.553Z,99955.47
2022-11-04T11:03:23.904Z,99970.81
2022-11-04T11:05:50.213Z,99956.56
2022-11-04T11:08:16.918Z,99956.28
2022-11-04T11:10:43.415Z,99958.16
2022-11-04T11:13:10.213Z,99944.72
2022-11-04T11:15:36.720Z,99947.16
2022-11-04T11:18:03.229Z,99949.03
2022-11-04T11:20:29.501Z,99960.03
2022-11-04T11:22:59.230Z,99960.84
2022-11-04T11:25:28.332Z,99961.41
2022-11-04T11:27:54.712Z,99960.84
2022-11-04T11:30:21.074Z,99965.16
2022-11-04T11:32:47.504Z,99965.41
2022-11-04T11:35:13.827Z,99968.13
2022-11-04T11:37:40.162Z,99966.25
2022-11-04T11:40:06.482Z,99971.63
2022-11-04T11:42:32.771Z,99968.94
2022-11-04T11:44:59.076Z,99960.28
2022-11-04T11:47:25.490Z,99953.03
2022-11-04T11:49:52.261Z,99949.28
2022-11-04T11:52:18.607Z,99946.56
2022-11-04T11:54:45.957Z,99950.34
2022-11-04T11:57:14.234Z,99965.13
2022-11-04T12:02:28.753Z,99965.66
2022-11-04T12:10:49.787Z,99971.06
2022-11-04T12:13:23.511Z,99969.69
2022-11-04T12:15:50.577Z,99968.59
2022-11-04T12:18:17.190Z,99980.44
2022-11-04T12:20:43.770Z,99971.00
2022-11-04T12:23:10.484Z,99969.13
2022-11-04T12:25:36.998Z,99969.13
2022-11-04T12:28:03.371Z,99968.56
2022-11-04T12:30:34.019Z,99970.22
2022-11-04T12:33:04.587Z,99955.94
2022-11-04T12:35:30.998Z,99963.44
2022-11-04T12:37:57.468Z,99966.13
2022-11-04T12:40:23.971Z,99960.75
2022-11-04T12:42:50.393Z,99958.31
2022-11-04T12:45:16.826Z,99946.25
2022-11-04T12:47:43.203Z,99945.66
2022-11-04T12:50:09.493Z,99944.03
2022-11-04T12:52:35.941Z,99946.16
2022-11-04T12:55:02.256Z,99950.50
2022-11-04T12:57:28.890Z,99961.28
2022-11-04T12:59:55.122Z,99959.63
2022-11-04T13:02:21.740Z,99960.69
2022-11-04T13:04:48.307Z,99964.22
2022-11-04T13:07:14.796Z,99969.59
2022-11-04T13:09:41.220Z,99970.38
2022-11-04T13:12:07.762Z,99973.06
2022-11-04T13:14:34.398Z,99971.47
2022-11-04T13:17:00.689Z,99967.16
2022-11-04T13:19:27.111Z,99957.19
2022-11-04T13:21:53.511Z,99968.75
2022-11-04T13:24:20.108Z,99977.09
2022-11-04T13:26:46.526Z,99980.84
2022-11-04T13:29:12.967Z,99985.97
2022-11-04T13:31:39.292Z,99976.28
2022-11-04T13:34:05.631Z,99974.16
2022-11-04T13:36:31.924Z,99975.22
2022-11-04T13:38:58.217Z,99974.16
2022-11-04T13:41:24.646Z,99966.06
2022-11-04T13:43:50.988Z,99957.19
2022-11-04T13:46:17.549Z,99956.13
2022-11-04T13:48:44.000Z,99937.84
2022-11-04T13:51:10.270Z,99937.28
2022-11-04T13:53:36.584Z,99927.84
2022-11-04T13:56:31.204Z,99927.84
2022-11-04T13:58:49.455Z,99934.31
2022-11-04T14:01:15.866Z,99946.94
2022-11-04T14:03:42.364Z,99958.78
2022-11-04T14:06:08.730Z,99969.28
2022-11-04T14:08:35.005Z,99977.63
2022-11-04T14:11:01.303Z,99985.44
2022-11-04T14:13:27.655Z,99986.47
2022-11-04T14:15:53.937Z,99978.41
2022-11-04T14:18:20.226Z,99984.88
2022-11-04T14:20:46.542Z,99995.38
2022-11-04T14:23:12.808Z,99999.38
2022-11-04T14:28:18.196Z,99982.16
2022-11-04T14:30:44.735Z,99980.31
2022-11-04T14:33:11.462Z,99979.47
2022-11-04T14:35:37.956Z,99973.03
2022-11-04T14:38:04.290Z,99977.88
2022-11-04T14:40:30.616Z,99981.34
2022-11-04T14:42:56.920Z,99977.88
2022-11-04T14:45:23.233Z,99981.63
2022-11-04T14:47:49.699Z,99989.41
2022-11-04T14:50:16.115Z,99988.88
2022-11-04T14:52:42.567Z,99994.81
2022-11-04T14:55:09.113Z,100002.31
2022-11-04T14:57:35.404Z,100016.34
2022-11-04T15:00:01.754Z,100013.09
2022-11-04T15:02:28.136Z,100016.34
2022-11-04T15:04:54.526Z,100019.84
2022-11-04T15:07:20.763Z,100019.34
2022-11-04T15:09:47.179Z,100019.84
2022-11-04T15:12:13.716Z,100022.53
2022-11-04T15:14:39.972Z,100002.09
2022-11-04T15:17:06.338Z,100006.41
2022-11-04T15:19:32.692Z,100011.22
2022-11-04T15:21:58.987Z,100021.72
2022-11-04T15:24:25.542Z,100022.53
2022-11-04T15:26:51.844Z,100028.41
2022-11-04T15:29:18.206Z,100024.69
2022-11-04T15:31:44.510Z,100030.31
2022-11-04T15:34:14.331Z,100041.88
2022-11-04T15:36:40.986Z,100030.06
2022-11-04T15:39:07.274Z,100026.56
2022-11-04T15:41:38.297Z,100039.19
2022-11-04T15:44:05.062Z,100034.03
2022-11-04T15:46:31.323Z,100045.63
2022-11-04T15:48:57.653Z,100043.75
2022-11-04T15:51:23.915Z,100041.31
2022-11-04T15:53:50.214Z,100054.53
2022-11-04T15:56:16.538Z,100049.41
2022-11-04T15:58:43.352Z,100059.91
2022-11-04T16:01:09.666Z,100063.41
2022-11-04T16:03:35.947Z,100071.72
2022-11-04T16:06:02.385Z,100074.16
2022-11-04T16:08:28.686Z,100070.91
2022-11-04T16:10:55.000Z,100073.63
2022-11-04T16:13:21.643Z,100070.09
2022-11-04T16:15:48.036Z,100066.63
2022-11-04T16:18:14.667Z,100067.66
2022-11-04T16:20:41.008Z,100071.72
2022-11-04T16:23:07.807Z,100063.91
2022-11-04T16:25:34.431Z,100076.56
2022-11-04T16:28:00.819Z,100068.22
2022-11-04T16:30:27.122Z,100068.47
2022-11-04T16:32:53.500Z,100072.00
2022-11-04T16:35:20.170Z,100070.63
2022-11-04T16:37:46.795Z,100065.25
2022-11-04T16:40:13.146Z,100069.53
2022-11-04T16:42:39.719Z,100072.00
2022-11-04T16:45:06.015Z,100071.41
2022-11-04T16:47:32.656Z,100080.06
2022-11-04T16:49:59.074Z,100072.00
2022-11-04T16:52:25.348Z,100076.56
2022-11-04T16:54:51.759Z,100078.41
2022-11-04T16:57:18.223Z,100076.00
2022-11-04T16:59:44.538Z,100083.50
2022-11-04T17:02:10.913Z,100088.38
2022-11-04T17:04:37.325Z,100095.63
2022-11-04T17:07:03.608Z,100099.41
2022-11-04T17:09:29.974Z,100108.28
2022-11-04T17:11:56.282Z,100102.31
2022-11-04T17:14:22.663Z,100105.84
2022-11-04T17:16:49.002Z,100115.78
2022-11-04T17:19:15.316Z,100111.47
2022-11-04T17:21:41.598Z,100113.91
2022-11-04T17:24:07.892Z,100117.41
2022-11-04T17:26:34.159Z,100112.03
2022-11-04T17:29:00.466Z,100120.09
2022-11-04T17:31:26.830Z,100118.72
2022-11-04T17:33:53.172Z,100119.53
2022-11-04T17:36:19.500Z,100122.78
2022-11-04T17:38:45.803Z,100123.31
2022-11-04T17:41:12.241Z,100124.69
2022-11-04T17:43:38.564Z,100130.31
2022-11-04T17:46:04.888Z,100126.53
2022-11-04T17:48:31.651Z,100134.88
2022-11-04T17:50:58.460Z,100146.44
2022-11-04T17:53:24.799Z,100145.63
2022-11-04T17:55:51.178Z,100146.69
2022-11-04T17:58:17.524Z,100144.00
2022-11-04T18:00:43.990Z,100142.13
2022-11-04T18:03:10.990Z,100151.25
2022-11-04T18:05:37.512Z,100145.63
2022-11-04T18:08:03.812Z,100142.44
2022-11-04T18:10:30.128Z,100138.63
2022-11-04T18:12:56.425Z,100144.50
2022-11-04T18:15:22.759Z,100145.56
2022-11-04T18:17:49.169Z,100148.84
2022-11-04T18:20:15.811Z,100147.75
2022-11-04T18:22:42.446Z,100148.00
2022-11-04T18:25:09.069Z,100148.06
2022-11-04T18:27:35.412Z,100149.88
2022-11-04T18:30:01.710Z,100142.38
2022-11-04T18:32:27.986Z,100142.63
2022-11-04T18:34:54.465Z,100148.84
2022-11-04T18:37:20.800Z,100146.16
2022-11-04T18:39:47.102Z,100147.41
2022-11-04T18:42:13.404Z,100152.00
2022-11-04T18:44:39.720Z,100149.88
2022-11-04T18:47:05.978Z,100153.63
2022-11-04T18:49:32.324Z,100150.13
2022-11-04T18:51:58.859Z,100148.25
2022-11-04T18:54:25.424Z,100159.00
2022-11-04T18:56:51.772Z,100157.38
2022-11-04T18:59:18.070Z,100164.63
2022-11-04T19:01:44.435Z,100158.78
2022-11-04T19:04:10.788Z,100157.63
2022-11-04T19:06:37.083Z,100160.31
2022-11-04T19:09:13.482Z,100163.56
2022-11-04T19:11:49.744Z,100165.69
2022-11-04T19:14:16.000Z,100175.63
2022-11-04T19:16:42.279Z,100172.94
2022-11-04T19:19:08.672Z,100184.28
2022-11-04T19:21:35.006Z,100181.59
2022-11-04T19:24:01.284Z,100182.66
2022-11-04T19:26:27.630Z,100181.03
2022-11-04T19:28:54.515Z,100185.84
2022-11-04T19:31:21.321Z,100182.09
2022-11-04T19:33:47.630Z,100185.84
2022-11-04T19:36:13.909Z,100176.16
2022-11-04T19:38:40.183Z,100178.09
2022-11-04T19:41:06.461Z,100179.97
2022-11-04T19:43:32.838Z,100182.09
2022-11-04T19:46:04.042Z,100186.97
2022-11-04T19:48:31.032Z,100190.16
2022-11-04T19:50:57.291Z,100192.38
2022-11-04T19:53:23.608Z,100194.22
2022-11-04T19:55:49.924Z,100200.91
2022-11-04T19:58:16.228Z,100206.31
2022-11-04T20:00:42.503Z,100201.41
2022-11-04T20:03:08.912Z,100210.06
2022-11-04T20:05:35.216Z,100207.59
2022-11-04T20:08:05.919Z,100215.44
2022-11-04T20:10:32.712Z,100218.13
2022-11-04T20:12:59.035Z,100221.63
2022-11-04T20:15:25.461Z,100218.94
2022-11-04T20:17:51.998Z,100225.38
2022-11-04T20:20:18.291Z,100218.94
2022-11-04T20:22:44.600Z,100217.88
2022-11-04T20:25:10.905Z,100218.69
2022-11-04T20:27:37.319Z,100214.84
2022-11-04T20:30:03.615Z,100221.31
2022-11-04T20:32:29.914Z,100222.94
2022-11-04T20:34:56.286Z,100219.19
2022-11-04T20:37:22.663Z,100224.56
2022-11-04T20:39:49.253Z,100220.50
2022-11-04T20:42:15.614Z,100219.44
2022-11-04T20:44:42.062Z,100223.75
2022-11-04T20:47:08.514Z,100222.69
2022-11-04T20:49:34.871Z,100217.53
2022-11-04T20:52:01.372Z,100226.44
2022-11-04T20:54:27.766Z,100233.13
2022-11-04T20:56:54.042Z,100233.69
2022-11-04T20:59:20.381Z,100240.13
2022-11-04T21:01:46.825Z,100241.75
2022-11-04T21:04:13.200Z,100235.56
2022-11-04T21:06:39.578Z,100248.44
2022-11-04T21:09:05.874Z,100245.75
2022-11-04T21:11:32.516Z,100253.34
2022-11-04T21:13:58.839Z,100247.66
2022-11-04T21:16:25.142Z,100252.44
2022-11-04T21:18:51.442Z,100255.72
2022-11-04T21:21:17.708Z,100253.59
2022-11-04T21:23:44.089Z,100250.91
2022-11-04T21:26:10.444Z,100249.28
2022-11-04T21:28:36.688Z,100248.44
2022-11-04T21:31:03.087Z,100247.41
2022-11-04T21:33:29.343Z,100251.13
2022-11-04T21:35:55.988Z,100248.94
2022-11-04T21:38:22.352Z,100249.75
2022-11-04T21:40:48.683Z,100252.44
2022-11-04T21:43:15.146Z,100249.75
2022-11-04T21:45:41.509Z,100262.41
2022-11-04T21:48:09.006Z,100253.50
2022-11-04T21:50:35.698Z,100261.56
2022-11-04T21:53:02.045Z,100262.13
2022-11-04T21:55:28.571Z,100268.03
2022-11-04T21:57:54.906Z,100265.88
2022-11-04T22:00:21.263Z,100265.88
2022-11-04T22:02:47.738Z,100267.50
2022-11-04T22:05:14.471Z,100266.97
2022-11-04T22:07:40.780Z,100267.78
2022-11-04T22:10:07.220Z,100276.88
2022-11-04T22:12:33.637Z,100275.03
2022-11-04T22:14:59.993Z,100275.59
2022-11-04T22:17:26.458Z,100278.78
2022-11-04T22:19:52.796Z,100281.47
2022-11-04T22:22:19.099Z,100286.84
2022-11-04T22:24:45.495Z,100284.41
2022-11-04T22:27:11.869Z,100280.88
2022-11-04T22:29:38.189Z,100291.41
2022-11-04T22:32:04.459Z,100293.53
2022-11-04T22:34:30.758Z,100299.25
2022-11-04T22:36:57.057Z,100301.59
2022-11-04T22:39:23.407Z,100298.66
2022-11-04T22:41:49.677Z,100305.09
2022-11-04T22:44:16.216Z,100305.09
2022-11-04T22:46:42.488Z,100305.09
2022-11-04T22:49:08.758Z,100305.91
2022-11-04T22:51:35.051Z,100304.03
2022-11-04T22:54:07.689Z,100306.41
2022-11-04T22:56:34.675Z,100301.00
2022-11-04T22:59:01.051Z,100308.38
2022-11-04T23:01:27.481Z,100305.09
2022-11-04T23:03:53.928Z,100310.00
2022-11-04T23:06:20.624Z,100305.69
2022-11-04T23:08:46.974Z,100309.91
2022-11-04T23:11:13.339Z,100307.78
2022-11-04T23:13:39.876Z,100309.09
2022-11-04T23:16:06.314Z,100309.69
2022-11-04T23:18:32.571Z,100312.59
2022-11-04T23:20:58.886Z,100313.66
2022-11-04T23:23:25.224Z,100313.16
2022-11-04T23:25:51.487Z,100314.56
2022-11-04T23:28:17.883Z,100323.59
2022-11-04T23:30:44.346Z,100317.38
2022-11-04T23:33:11.184Z,100319.84
2022-11-04T23:35:37.679Z,100321.75
2022-11-04T23:38:04.239Z,100327.34
2022-11-04T23:40:30.680Z,100337.06
2022-11-04T23:42:57.061Z,100328.75
2022-11-04T23:45:23.504Z,100334.34
2022-11-04T23:47:49.831Z,100332.72
2022-11-04T23:50:16.400Z,100332.50
2022-11-04T23:52:42.731Z,100336.81
2022-11-04T23:55:09.028Z,100340.28
2022-11-04T23:57:35.324Z,100332.72
